Time;durP1;ratioP1;P1;durP2;ratioP2;P2;SDS_P1;SDS_P2;PMS_P1;PMS_P2;Temp;Humidity;BMP_temperature;BMP_pressure;BME280_temperature;BME280_humidity;BME280_pressure;Samples;Min_cycle;Max_cycle;Signal;HPM_P1;HPM_P2
2021/07/02 00:01:58;;;;;;;1999.90;999.90;;;22.30;79.80;;;;;;5058270;28;20026;-91
2021/07/02 00:04:24;;;;;;;1999.90;999.90;;;22.30;80.00;;;;;;5065618;28;20030;-88
2021/07/02 00:06:50;;;;;;;1999.90;999.90;;;22.30;80.30;;;;;;5055611;28;20037;-90
2021/07/02 00:09:15;;;;;;;1999.90;999.90;;;22.30;80.30;;;;;;5052155;28;20040;-92
2021/07/02 00:11:41;;;;;;;1999.90;999.90;;;22.30;80.50;;;;;;5054917;28;20117;-91
2021/07/02 00:14:07;;;;;;;1999.90;999.90;;;22.20;80.70;;;;;;5050750;28;20478;-92
2021/07/02 00:16:34;;;;;;;1999.90;999.90;;;22.20;80.80;;;;;;5051000;28;20041;-91
2021/07/02 00:19:00;;;;;;;1999.90;999.90;;;22.20;80.90;;;;;;5051747;28;20029;-90
2021/07/02 00:21:26;;;;;;;1999.90;999.90;;;22.10;80.80;;;;;;5055324;28;20051;-90
2021/07/02 00:23:55;;;;;;;1999.90;999.90;;;22.20;81.10;;;;;;5070108;28;20095;-89
2021/07/02 00:26:21;;;;;;;1999.90;999.90;;;22.10;81.00;;;;;;5053386;28;20670;-92
2021/07/02 00:28:47;;;;;;;1999.90;999.90;;;22.10;81.00;;;;;;5054778;28;20055;-91
2021/07/02 00:31:12;;;;;;;1999.90;999.90;;;22.10;81.10;;;;;;5070796;28;20053;-91
2021/07/02 00:33:38;;;;;;;1999.90;999.90;;;22.10;81.10;;;;;;5054011;28;20021;-92
2021/07/02 00:36:04;;;;;;;1999.90;999.90;;;22.10;81.20;;;;;;5053130;28;20021;-92
2021/07/02 00:38:30;;;;;;;1999.90;999.90;;;22.10;81.40;;;;;;5050965;28;20036;-90
2021/07/02 00:40:56;;;;;;;1999.90;999.90;;;22.10;81.30;;;;;;5050611;28;20029;-91
2021/07/02 00:43:22;;;;;;;1999.90;999.90;;;22.10;81.50;;;;;;5053312;28;20025;-90
2021/07/02 00:45:48;;;;;;;1999.90;999.90;;;22.00;81.50;;;;;;5051723;28;20052;-90
2021/07/02 00:48:15;;;;;;;1999.90;999.90;;;22.00;81.40;;;;;;5053359;28;20086;-90
2021/07/02 00:50:43;;;;;;;1999.90;999.90;;;22.00;81.50;;;;;;5058482;28;20024;-90
2021/07/02 00:53:09;;;;;;;1999.90;999.90;;;22.00;81.60;;;;;;5054040;28;20071;-90
2021/07/02 00:55:35;;;;;;;1999.90;999.90;;;21.90;81.70;;;;;;5054643;28;20025;-89
2021/07/02 00:58:01;;;;;;;1999.90;999.90;;;21.90;81.60;;;;;;5052134;28;20032;-91
2021/07/02 01:00:26;;;;;;;1999.90;999.90;;;21.90;81.70;;;;;;5051882;28;20032;-87
2021/07/02 01:02:55;;;;;;;1999.90;999.90;;;21.90;81.90;;;;;;5052083;28;20117;-90
2021/07/02 01:05:21;;;;;;;1999.90;999.90;;;21.90;82.00;;;;;;5057357;28;20052;-90
2021/07/02 01:07:47;;;;;;;1999.90;999.90;;;21.80;81.90;;;;;;5055783;28;20029;-92
2021/07/02 01:10:17;;;;;;;1999.90;999.90;;;21.80;82.00;;;;;;5053479;28;20122;-91
2021/07/02 01:12:43;;;;;;;1999.90;999.90;;;21.80;82.00;;;;;;5071562;28;20417;-91
2021/07/02 01:15:26;;;;;;;1999.90;999.90;;;21.80;82.10;;;;;;5054116;28;20098;-89
2021/07/02 01:17:52;;;;;;;1999.90;999.90;;;21.80;81.90;;;;;;5069660;28;20028;-92
2021/07/02 01:20:19;;;;;;;1999.90;999.90;;;21.70;82.70;;;;;;5055283;28;20025;-92
2021/07/02 01:22:45;;;;;;;1999.90;999.90;;;21.70;82.10;;;;;;5051542;28;20033;-92
2021/07/02 01:25:12;;;;;;;1999.90;999.90;;;21.70;82.10;;;;;;5053802;28;20047;-91
2021/07/02 01:27:38;;;;;;;1999.90;999.90;;;21.70;82.10;;;;;;5053442;28;20113;-91
2021/07/02 01:30:07;;;;;;;1999.90;999.90;;;21.70;82.10;;;;;;5053707;28;20887;-89
2021/07/02 01:32:33;;;;;;;1999.90;999.90;;;21.70;82.20;;;;;;5056054;28;20056;-93
2021/07/02 01:34:58;;;;;;;1999.90;999.90;;;21.70;82.20;;;;;;5050669;28;20489;-90
2021/07/02 01:37:24;;;;;;;1999.90;999.90;;;21.70;82.30;;;;;;5052203;28;20021;-92
2021/07/02 01:39:50;;;;;;;1999.90;999.90;;;21.60;82.30;;;;;;5060158;28;20050;-91
2021/07/02 01:42:16;;;;;;;1999.90;999.90;;;21.60;82.40;;;;;;5045093;28;20517;-91
2021/07/02 01:44:44;;;;;;;1999.90;999.90;;;21.50;82.40;;;;;;5053153;28;20504;-91
2021/07/02 01:47:10;;;;;;;1999.90;999.90;;;21.50;82.50;;;;;;5053358;28;20016;-90
2021/07/02 01:49:38;;;;;;;1999.90;999.90;;;21.40;82.50;;;;;;5053730;28;20411;-80
2021/07/02 01:52:04;;;;;;;1999.90;999.90;;;21.40;82.60;;;;;;5047733;28;20032;-79
2021/07/02 01:54:30;;;;;;;1999.90;999.90;;;21.40;82.70;;;;;;5051342;28;20029;-79
2021/07/02 01:56:56;;;;;;;1999.90;999.90;;;21.40;83.60;;;;;;5057469;28;20089;-80
2021/07/02 01:59:21;;;;;;;1999.90;999.90;;;21.40;83.00;;;;;;5053053;28;20033;-79
2021/07/02 02:01:48;;;;;;;1999.90;999.90;;;21.40;83.10;;;;;;5060089;28;20025;-79
2021/07/02 02:04:14;;;;;;;1999.90;999.90;;;21.30;83.10;;;;;;5050195;28;20013;-81
2021/07/02 02:06:41;;;;;;;1999.90;999.90;;;21.30;83.10;;;;;;5049120;28;20167;-80
2021/07/02 02:09:07;;;;;;;1999.90;999.90;;;21.30;83.30;;;;;;5046028;28;24584;-80
2021/07/02 02:11:33;;;;;;;1999.90;999.90;;;21.30;83.40;;;;;;5049195;28;20552;-81
2021/07/02 02:14:00;;;;;;;1999.90;999.90;;;21.30;83.30;;;;;;5047587;28;20590;-80
2021/07/02 02:16:26;;;;;;;1999.90;999.90;;;21.30;83.40;;;;;;5046620;28;20033;-80
2021/07/02 02:18:52;;;;;;;1999.90;999.90;;;21.30;83.40;;;;;;5044140;28;20059;-80
2021/07/02 02:21:18;;;;;;;1999.90;999.90;;;21.30;83.40;;;;;;5051302;28;20024;-80
2021/07/02 02:23:44;;;;;;;1999.90;999.90;;;21.40;83.40;;;;;;5051849;28;20123;-81
2021/07/02 02:26:10;;;;;;;1999.90;999.90;;;21.40;83.40;;;;;;5046340;28;20158;-80
2021/07/02 02:28:36;;;;;;;1999.90;999.90;;;21.40;83.30;;;;;;5051692;28;20013;-80
2021/07/02 02:31:03;;;;;;;1999.90;999.90;;;21.40;83.30;;;;;;5053238;28;20020;-80
2021/07/02 02:33:29;;;;;;;1999.90;999.90;;;21.40;83.20;;;;;;5050837;28;20075;-81
2021/07/02 02:35:54;;;;;;;1999.90;999.90;;;21.40;83.10;;;;;;5048498;28;20029;-80
2021/07/02 02:38:20;;;;;;;1999.90;999.90;;;21.50;83.10;;;;;;5051575;28;20055;-80
2021/07/02 02:40:46;;;;;;;1999.90;999.90;;;21.50;82.90;;;;;;5051746;28;20017;-79
2021/07/02 02:43:12;;;;;;;1999.90;999.90;;;21.50;82.80;;;;;;5050341;28;20040;-81
2021/07/02 02:45:37;;;;;;;1999.90;999.90;;;21.50;82.80;;;;;;5047894;28;20432;-80
2021/07/02 02:48:04;;;;;;;1999.90;999.90;;;21.60;82.70;;;;;;5050074;28;20733;-80
2021/07/02 02:50:33;;;;;;;1999.90;999.90;;;21.60;82.50;;;;;;5049462;28;20017;-80
2021/07/02 02:52:58;;;;;;;1999.90;999.90;;;21.60;82.20;;;;;;5049854;28;20025;-81
2021/07/02 02:55:24;;;;;;;1999.90;999.90;;;21.60;82.10;;;;;;5061258;28;20032;-81
2021/07/02 02:57:50;;;;;;;1999.90;999.90;;;21.70;81.90;;;;;;5065011;28;20100;-80
2021/07/02 03:00:16;;;;;;;1999.90;999.90;;;21.70;81.80;;;;;;5056713;28;20017;-80
2021/07/02 03:02:42;;;;;;;1999.90;999.90;;;21.80;81.50;;;;;;5051084;28;20481;-80
2021/07/02 03:05:08;;;;;;;1999.90;999.90;;;21.80;81.30;;;;;;5052725;28;20040;-80
2021/07/02 03:07:34;;;;;;;1999.90;999.90;;;21.80;80.80;;;;;;5053609;28;20029;-83
2021/07/02 03:10:00;;;;;;;1999.90;999.90;;;21.80;80.90;;;;;;5052084;28;20048;-81
2021/07/02 03:12:26;;;;;;;1999.90;999.90;;;21.80;80.90;;;;;;5043880;28;20017;-80
2021/07/02 03:14:53;;;;;;;1999.90;999.90;;;21.90;80.60;;;;;;5065169;28;20025;-80
2021/07/02 03:17:19;;;;;;;1999.90;999.90;;;21.90;80.40;;;;;;5050386;28;20048;-80
2021/07/02 03:19:45;;;;;;;1999.90;999.90;;;21.90;80.50;;;;;;5052500;28;20028;-80
2021/07/02 03:22:10;;;;;;;1999.90;999.90;;;21.90;81.50;;;;;;5051672;28;20021;-79
2021/07/02 03:24:36;;;;;;;1999.90;999.90;;;21.90;80.80;;;;;;5044030;28;20051;-83
2021/07/02 03:27:02;;;;;;;1999.90;999.90;;;22.00;80.50;;;;;;5056124;28;20025;-80
2021/07/02 03:29:28;;;;;;;1999.90;999.90;;;22.00;80.40;;;;;;5049820;28;20070;-80
2021/07/02 03:31:54;;;;;;;1999.90;999.90;;;22.00;80.50;;;;;;5060768;28;20025;-81
2021/07/02 03:34:19;;;;;;;1999.90;999.90;;;22.10;80.70;;;;;;5050520;28;20061;-82
2021/07/02 03:36:45;;;;;;;1999.90;999.90;;;22.10;80.50;;;;;;5050006;28;20028;-81
2021/07/02 03:39:11;;;;;;;1999.90;999.90;;;22.20;80.40;;;;;;5056590;28;20116;-81
2021/07/02 03:41:37;;;;;;;1999.90;999.90;;;22.20;80.30;;;;;;5054403;28;20037;-82
2021/07/02 03:44:02;;;;;;;1999.90;999.90;;;22.30;80.20;;;;;;5051082;28;20032;-81
2021/07/02 03:46:28;;;;;;;1999.90;999.90;;;22.40;80.10;;;;;;5038295;28;20048;-81
2021/07/02 03:48:54;;;;;;;1999.90;999.90;;;22.40;79.90;;;;;;5048778;28;20017;-84
2021/07/02 03:51:20;;;;;;;1999.90;999.90;;;22.50;80.50;;;;;;5050532;28;20026;-80
2021/07/02 03:53:45;;;;;;;1999.90;999.90;;;22.60;79.80;;;;;;5051541;28;20025;-80
2021/07/02 03:56:11;;;;;;;1999.90;999.90;;;22.60;79.70;;;;;;5053882;28;20047;-80
2021/07/02 03:58:38;;;;;;;1999.90;999.90;;;22.70;79.50;;;;;;5051142;28;20104;-81
2021/07/02 04:01:04;;;;;;;1999.90;999.90;;;22.80;79.60;;;;;;5052928;28;20028;-81
2021/07/02 04:03:31;;;;;;;1999.90;999.90;;;22.90;79.20;;;;;;5055248;28;20108;-80
2021/07/02 04:05:57;;;;;;;1999.90;999.90;;;22.90;78.70;;;;;;5055883;28;20041;-80
2021/07/02 04:08:23;;;;;;;1999.90;999.90;;;23.00;78.50;;;;;;5052224;28;20569;-81
2021/07/02 04:10:49;;;;;;;1999.90;999.90;;;23.00;78.40;;;;;;5045136;28;20032;-80
2021/07/02 04:13:15;;;;;;;1999.90;999.90;;;23.00;78.50;;;;;;5055756;28;20778;-81
2021/07/02 04:15:41;;;;;;;1999.90;999.90;;;23.00;78.40;;;;;;5049379;28;20027;-83
2021/07/02 04:18:08;;;;;;;1999.90;999.90;;;23.10;78.40;;;;;;5066000;28;20029;-81
2021/07/02 04:20:35;;;;;;;1999.90;999.90;;;23.10;78.40;;;;;;5050677;28;20669;-80
2021/07/02 04:23:01;;;;;;;1999.90;999.90;;;23.10;78.40;;;;;;5058194;28;20027;-81
2021/07/02 04:25:26;;;;;;;1999.90;999.90;;;23.20;78.10;;;;;;5059426;28;20424;-81
2021/07/02 04:27:52;;;;;;;1999.90;999.90;;;23.20;77.90;;;;;;5064336;28;20548;-80
2021/07/02 04:30:18;;;;;;;1999.90;999.90;;;23.30;78.00;;;;;;5054819;28;20741;-80
2021/07/02 04:32:44;;;;;;;1999.90;999.90;;;23.30;78.00;;;;;;5053651;28;20401;-80
2021/07/02 04:35:10;;;;;;;1999.90;999.90;;;23.30;78.20;;;;;;5064893;28;20124;-81
2021/07/02 04:37:40;;;;;;;1999.90;999.90;;;23.50;78.20;;;;;;5053105;28;20028;-82
2021/07/02 04:40:08;;;;;;;1999.90;999.90;;;23.60;78.00;;;;;;5054572;28;20036;-80
2021/07/02 04:42:35;;;;;;;1999.90;999.90;;;23.60;77.90;;;;;;5053411;28;20371;-82
2021/07/02 04:45:00;;;;;;;1999.90;999.90;;;23.70;77.40;;;;;;5057572;28;20041;-82
2021/07/02 04:47:27;;;;;;;1999.90;999.90;;;23.80;77.40;;;;;;5054799;28;20367;-80
2021/07/02 04:49:53;;;;;;;1999.90;999.90;;;23.80;77.20;;;;;;5053333;28;20021;-81
2021/07/02 04:52:18;;;;;;;1999.90;999.90;;;23.90;77.40;;;;;;5053148;28;20040;-83
2021/07/02 04:54:44;;;;;;;1999.90;999.90;;;23.90;76.80;;;;;;5056681;28;20033;-80
2021/07/02 04:57:10;;;;;;;1999.90;999.90;;;24.10;76.50;;;;;;5057913;28;20093;-80
2021/07/02 04:59:37;;;;;;;1999.90;999.90;;;24.10;76.50;;;;;;5066372;28;20108;-83
2021/07/02 05:02:04;;;;;;;1999.90;999.90;;;24.10;76.40;;;;;;5055998;28;20071;-80
2021/07/02 05:04:30;;;;;;;1999.90;999.90;;;24.10;76.40;;;;;;5050665;28;20429;-81
2021/07/02 05:06:56;;;;;;;1999.90;999.90;;;24.20;76.60;;;;;;5052474;28;20041;-80
2021/07/02 05:09:23;;;;;;;1999.90;999.90;;;24.20;76.40;;;;;;5055407;28;20158;-83
2021/07/02 05:11:49;;;;;;;1999.90;999.90;;;24.30;76.40;;;;;;5051396;28;20035;-80
2021/07/02 05:14:15;;;;;;;1999.90;999.90;;;24.40;76.30;;;;;;5051774;28;20370;-80
2021/07/02 05:16:40;;;;;;;1999.90;999.90;;;24.50;75.80;;;;;;5047237;28;20096;-80
2021/07/02 05:19:09;;;;;;;1999.90;999.90;;;24.60;75.80;;;;;;5055320;28;20424;-81
2021/07/02 05:21:35;;;;;;;1999.90;999.90;;;24.70;75.80;;;;;;5052430;28;20017;-81
2021/07/02 05:24:01;;;;;;;1999.90;999.90;;;24.80;75.60;;;;;;5050432;28;20035;-81
2021/07/02 05:26:27;;;;;;;1999.90;999.90;;;24.90;75.30;;;;;;5051699;28;20545;-80
2021/07/02 05:28:53;;;;;;;1999.90;999.90;;;25.00;75.10;;;;;;5068599;28;20500;-81
2021/07/02 05:31:18;;;;;;;1999.90;999.90;;;25.00;74.90;;;;;;5046810;28;20032;-81
2021/07/02 05:33:45;;;;;;;1999.90;999.90;;;25.00;75.00;;;;;;5050851;28;20029;-83
2021/07/02 05:36:11;;;;;;;1999.90;999.90;;;25.10;75.10;;;;;;5060988;28;20099;-81
2021/07/02 05:38:37;;;;;;;1999.90;999.90;;;25.20;75.00;;;;;;5053572;28;20650;-79
2021/07/02 05:41:02;;;;;;;1999.90;999.90;;;25.40;74.80;;;;;;5047868;28;20025;-82
2021/07/02 05:43:28;;;;;;;1999.90;999.90;;;25.40;74.60;;;;;;5044107;28;20028;-82
2021/07/02 05:45:54;;;;;;;1999.90;999.90;;;25.50;74.50;;;;;;5057819;28;20021;-80
2021/07/02 05:48:27;;;;;;;1999.90;999.90;;;25.60;74.10;;;;;;5045915;28;20078;-80
2021/07/02 05:50:53;;;;;;;1999.90;999.90;;;25.80;73.80;;;;;;5049646;28;20032;-83
2021/07/02 05:53:19;;;;;;;1999.90;999.90;;;25.90;73.70;;;;;;5040507;28;20147;-83
2021/07/02 05:55:45;;;;;;;1999.90;999.90;;;26.00;73.30;;;;;;5045527;28;20036;-83
2021/07/02 05:58:12;;;;;;;1999.90;999.90;;;26.00;72.90;;;;;;5038720;28;20044;-83
2021/07/02 06:00:38;;;;;;;1999.90;999.90;;;26.10;72.80;;;;;;5042135;28;20500;-81
2021/07/02 06:03:04;;;;;;;1999.90;999.90;;;26.20;72.40;;;;;;5043302;28;20029;-82
2021/07/02 06:05:30;;;;;;;1999.90;999.90;;;26.20;72.40;;;;;;5040433;28;20525;-83
2021/07/02 06:07:56;;;;;;;1999.90;999.90;;;26.40;72.30;;;;;;5037576;28;20043;-81
2021/07/02 06:10:24;;;;;;;1999.90;999.90;;;26.50;72.10;;;;;;5038113;28;20672;-83
2021/07/02 06:13:05;;;;;;;;;;;;;;;;;;;;;
2021/07/02 06:15:39;;;;;;;1999.90;999.90;;;26.70;70.80;;;;;;5043475;28;20494;-83
2021/07/02 06:18:11;;;;;;;1999.90;999.90;;;26.70;71.00;;;;;;5053783;28;20037;-83
2021/07/02 06:20:37;;;;;;;;;;;26.70;71.10;;;;;;5056671;28;20094;-82
2021/07/02 06:23:06;;;;;;;1999.90;999.90;;;26.60;69.40;;;;;;5040976;28;19916;-83
2021/07/02 06:25:32;;;;;;;1999.90;999.90;;;26.80;70.40;;;;;;5046295;28;20116;-85
2021/07/02 06:27:58;;;;;;;1999.90;999.90;;;26.90;70.20;;;;;;5036258;28;20029;-80
2021/07/02 06:30:23;;;;;;;1999.90;999.90;;;27.10;70.00;;;;;;5044531;28;20085;-81
2021/07/02 06:32:49;;;;;;;1999.90;999.90;;;27.20;68.80;;;;;;5043145;28;20024;-84
2021/07/02 06:35:18;;;;;;;1999.90;999.90;;;27.30;67.60;;;;;;5041457;28;20025;-81
2021/07/02 06:37:49;;;;;;;1999.90;999.90;;;27.40;67.80;;;;;;5059761;28;20111;-81
2021/07/02 06:40:15;;;;;;;1999.90;999.90;;;27.40;67.70;;;;;;5038779;28;20091;-82
2021/07/02 06:42:42;;;;;;;1999.90;999.90;;;27.50;66.80;;;;;;5034844;28;20032;-82
2021/07/02 06:45:08;;;;;;;1999.90;999.90;;;27.60;66.00;;;;;;5041195;28;21568;-84
2021/07/02 06:47:33;;;;;;;1999.90;999.90;;;27.70;65.70;;;;;;5053294;28;20028;-81
2021/07/02 06:50:04;;;;;;;1999.90;999.90;;;27.70;65.60;;;;;;5043356;28;21435;-86
2021/07/02 06:52:30;;;;;;;1999.90;999.90;;;27.80;65.60;;;;;;5044168;28;20104;-83
2021/07/02 06:55:05;;;;;;;1999.90;999.90;;;27.80;65.80;;;;;;5046269;28;20099;-79
2021/07/02 06:57:30;;;;;;;1999.90;999.90;;;27.90;66.00;;;;;;5046745;28;20028;-79
2021/07/02 07:00:03;;;;;;;1999.90;999.90;;;28.00;66.20;;;;;;5057886;28;21305;-84
2021/07/02 07:02:29;;;;;;;1999.90;999.90;;;28.20;65.80;;;;;;5036436;28;20469;-80
2021/07/02 07:04:55;;;;;;;1999.90;999.90;;;28.20;66.00;;;;;;5039113;28;20079;-81
2021/07/02 07:07:21;;;;;;;1999.90;999.90;;;28.20;66.60;;;;;;5050486;28;20033;-86
2021/07/02 07:09:47;;;;;;;1999.90;999.90;;;28.30;66.20;;;;;;5036893;28;20040;-80
2021/07/02 07:12:13;;;;;;;1999.90;999.90;;;28.30;66.10;;;;;;5057590;28;20020;-81
2021/07/02 07:14:39;;;;;;;1999.90;999.90;;;28.40;66.00;;;;;;5039825;28;20029;-81
2021/07/02 07:17:28;;;;;;;1999.90;999.90;;;28.60;65.80;;;;;;5041557;28;20486;-82
2021/07/02 07:19:54;;;;;;;1999.90;999.90;;;28.70;65.30;;;;;;5040347;28;20061;-81
2021/07/02 07:22:19;;;;;;;1999.90;999.90;;;28.70;65.10;;;;;;5038729;28;20740;-83
2021/07/02 07:25:22;;;;;;;1999.90;999.90;;;28.80;65.10;;;;;;5036240;28;20079;-87
2021/07/02 07:27:48;;;;;;;;;;;28.90;63.90;;;;;;5033696;28;20032;-82
2021/07/02 07:30:16;;;;;;;1999.90;999.90;;;28.80;64.40;;;;;;5037012;28;20322;-82
2021/07/02 07:32:44;;;;;;;1999.90;999.90;;;28.90;64.00;;;;;;5041903;28;20075;-83
2021/07/02 07:37:55;;;;;;;1999.90;999.90;;;29.10;63.70;;;;;;5044063;28;20698;-83
2021/07/02 07:40:22;;;;;;;1999.90;999.90;;;29.20;62.90;;;;;;5040717;28;20033;-83
2021/07/02 07:42:48;;;;;;;1999.90;999.90;;;29.30;61.90;;;;;;5032605;28;20174;-83
2021/07/02 07:45:16;;;;;;;1999.90;999.90;;;29.40;61.10;;;;;;5034059;28;20029;-81
2021/07/02 07:47:42;;;;;;;1999.90;999.90;;;29.40;61.50;;;;;;5040745;28;20032;-82
2021/07/02 07:50:19;;;;;;;1999.90;999.90;;;29.40;61.20;;;;;;5041679;28;20059;-84
2021/07/02 07:52:59;;;;;;;1999.90;999.90;;;29.50;61.10;;;;;;5052361;28;20040;-83
2021/07/02 07:55:32;;;;;;;1999.90;999.90;;;29.60;61.40;;;;;;5043152;28;20060;-82
2021/07/02 07:57:58;;;;;;;1999.90;999.90;;;29.70;61.30;;;;;;5039154;28;20485;-83
2021/07/02 08:00:29;;;;;;;1999.90;999.90;;;29.80;60.70;;;;;;5032650;28;20060;-84
2021/07/02 08:03:01;;;;;;;1999.90;999.90;;;29.80;59.70;;;;;;5041281;28;20037;-81
2021/07/02 08:05:28;;;;;;;1999.90;999.90;;;29.90;60.20;;;;;;5031120;28;20063;-81
2021/07/02 08:07:57;;;;;;;1999.90;999.90;;;29.90;60.10;;;;;;5056956;28;20033;-84
2021/07/02 08:10:26;;;;;;;1999.90;999.90;;;30.00;59.40;;;;;;5037753;28;20039;-84
2021/07/02 08:12:56;;;;;;;1999.90;999.90;;;30.10;59.40;;;;;;5054206;28;20067;-84
2021/07/02 08:15:22;;;;;;;1999.90;999.90;;;30.20;59.00;;;;;;5043347;28;20548;-81
2021/07/02 08:17:48;;;;;;;1999.90;999.90;;;30.20;58.60;;;;;;5041428;28;20409;-81
2021/07/02 08:20:14;;;;;;;1999.90;999.90;;;30.30;58.50;;;;;;5036562;28;22370;-82
2021/07/02 08:22:41;;;;;;;1999.90;999.90;;;30.30;58.50;;;;;;5039894;28;20036;-81
2021/07/02 08:25:10;;;;;;;1999.90;999.90;;;30.30;58.20;;;;;;5048548;28;20089;-82
2021/07/02 08:30:20;;;;;;;1999.90;999.90;;;30.50;58.00;;;;;;5035923;28;20056;-83
2021/07/02 08:32:49;;;;;;;1999.90;999.90;;;30.50;57.00;;;;;;5038232;28;20414;-82
2021/07/02 08:35:22;;;;;;;1999.90;999.90;;;30.50;57.00;;;;;;5055658;28;20059;-83
2021/07/02 08:37:54;;;;;;;1999.90;999.90;;;30.60;57.00;;;;;;5026712;28;20032;-87
2021/07/02 08:40:21;;;;;;;1999.90;999.90;;;30.70;57.40;;;;;;5034700;28;20044;-83
2021/07/02 08:42:49;;;;;;;1999.90;999.90;;;30.70;57.50;;;;;;5038150;28;20024;-83
2021/07/02 08:45:18;;;;;;;1999.90;999.90;;;30.60;57.90;;;;;;5041045;28;20043;-82
2021/07/02 08:47:46;;;;;;;1999.90;999.90;;;30.60;58.00;;;;;;5055306;28;20443;-83
2021/07/02 08:50:13;;;;;;;1999.90;999.90;;;30.60;58.30;;;;;;5054516;28;20028;-80
2021/07/02 08:52:39;;;;;;;1999.90;999.90;;;30.60;58.90;;;;;;5038525;28;20028;-82
2021/07/02 08:55:06;;;;;;;1999.90;999.90;;;30.70;58.80;;;;;;5030537;28;20377;-81
2021/07/02 08:57:57;;;;;;;1999.90;999.90;;;30.80;59.40;;;;;;5030186;28;20037;-83
2021/07/02 09:00:28;;;;;;;1999.90;999.90;;;30.80;59.10;;;;;;5035950;28;20383;-82
2021/07/02 09:03:21;;;;;;;1999.90;999.90;;;30.70;59.00;;;;;;5038372;28;20048;-86
2021/07/02 09:06:19;;;;;;;1999.90;999.90;;;30.60;59.20;;;;;;5031359;28;20057;-82
2021/07/02 09:09:07;;;;;;;1999.90;999.90;;;30.50;59.60;;;;;;5029656;28;20025;-82
2021/07/02 09:11:58;;;;;;;1999.90;999.90;;;30.40;60.20;;;;;;5031793;28;20768;-83
2021/07/02 09:14:27;;;;;;;1999.90;999.90;;;30.50;60.50;;;;;;5030213;28;20037;-84
2021/07/02 09:16:53;;;;;;;1999.90;999.90;;;30.80;60.00;;;;;;5034602;28;20538;-83
2021/07/02 09:19:28;;;;;;;1999.90;999.90;;;30.90;59.50;;;;;;5037911;28;20036;-83
2021/07/02 09:22:17;;;;;;;1999.90;999.90;;;30.90;59.20;;;;;;5033469;28;20032;-86
2021/07/02 09:24:45;;;;;;;1999.90;999.90;;;31.00;59.30;;;;;;5039777;28;20106;-82
2021/07/02 09:27:37;;;;;;;1999.90;999.90;;;31.00;59.50;;;;;;5031097;28;20386;-84
2021/07/02 09:30:18;;;;;;;1999.90;999.90;;;31.10;59.50;;;;;;5016002;28;20037;-82
2021/07/02 09:32:50;;;;;;;1999.90;999.90;;;31.40;59.10;;;;;;5032551;28;20056;-83
2021/07/02 09:35:18;;;;;;;1999.90;999.90;;;31.30;58.60;;;;;;5037119;28;20033;-85
2021/07/02 09:37:51;;;;;;;1999.90;999.90;;;31.20;58.40;;;;;;5039741;28;20045;-82
2021/07/02 09:40:20;;;;;;;1999.90;999.90;;;31.10;58.20;;;;;;5048159;28;20112;-88
2021/07/02 09:42:46;;;;;;;1999.90;999.90;;;31.00;58.80;;;;;;5049097;28;20040;-86
2021/07/02 09:45:18;;;;;;;1999.90;999.90;;;31.00;58.70;;;;;;5035340;28;20040;-85
2021/07/02 09:47:45;;;;;;;1999.90;999.90;;;30.90;58.40;;;;;;5042172;28;20036;-82
2021/07/02 09:50:29;;;;;;;1999.90;999.90;;;30.80;58.50;;;;;;5034193;28;20031;-83
2021/07/02 09:53:01;;;;;;;1999.90;999.90;;;30.60;58.90;;;;;;5027156;28;21131;-84
2021/07/02 09:55:31;;;;;;;;;;;30.50;59.50;;;;;;5022564;28;20036;-85
2021/07/02 09:58:08;;;;;;;1999.90;999.90;;;30.20;59.80;;;;;;5050773;28;20440;-83
2021/07/02 10:00:39;;;;;;;1999.90;999.90;;;30.20;60.30;;;;;;5032473;28;20485;-84
2021/07/02 10:03:36;;;;;;;1999.90;999.90;;;30.20;60.70;;;;;;5032113;28;20098;-85
2021/07/02 10:06:29;;;;;;;1999.90;999.90;;;30.10;60.70;;;;;;5034199;28;20048;-83
2021/07/02 10:08:55;;;;;;;1999.90;999.90;;;30.10;60.50;;;;;;5047782;28;20037;-81
2021/07/02 10:11:23;;;;;;;1999.90;999.90;;;30.00;61.00;;;;;;5043638;28;20091;-82
2021/07/02 10:13:50;;;;;;;1999.90;999.90;;;30.20;61.30;;;;;;5037702;28;20029;-82
2021/07/02 10:16:17;;;;;;;1999.90;999.90;;;30.30;61.20;;;;;;5032929;28;20453;-83
2021/07/02 10:18:51;;;;;;;1999.90;999.90;;;30.30;60.80;;;;;;5036223;28;20124;-83
2021/07/02 10:21:24;;;;;;;1999.90;999.90;;;30.50;60.20;;;;;;5036367;28;20120;-83
2021/07/02 10:23:53;;;;;;;1999.90;999.90;;;30.50;60.40;;;;;;5047769;28;20147;-87
2021/07/02 10:26:22;;;;;;;1999.90;999.90;;;30.60;60.50;;;;;;5041916;28;20047;-87
2021/07/02 10:28:55;;;;;;;1999.90;999.90;;;30.70;60.50;;;;;;5039424;28;21297;-86
2021/07/02 10:31:23;;;;;;;1999.90;999.90;;;30.80;60.40;;;;;;5042846;28;20112;-86
2021/07/02 10:34:00;;;;;;;1999.90;999.90;;;30.80;60.30;;;;;;5040292;28;20029;-83
2021/07/02 10:36:38;;;;;;;1999.90;999.90;;;30.80;60.80;;;;;;5044124;28;21103;-84
2021/07/02 10:39:23;;;;;;;1999.90;999.90;;;30.80;61.10;;;;;;5031144;28;20040;-85
2021/07/02 10:42:13;;;;;;;1999.90;999.90;;;30.90;60.70;;;;;;5042234;28;20033;-82
2021/07/02 10:44:59;;;;;;;1999.90;999.90;;;31.10;61.10;;;;;;5039955;28;20068;-85
2021/07/02 10:50:43;;;;;;;1999.90;999.90;;;31.50;60.30;;;;;;4992432;28;20038;-84
2021/07/02 10:53:29;;;;;;;1999.90;999.90;;;31.70;60.00;;;;;;5034434;28;20045;-84
2021/07/02 10:56:28;;;;;;;1999.90;999.90;;;31.80;58.90;;;;;;5043501;28;20035;-87
2021/07/02 10:58:54;;;;;;;1999.90;999.90;;;31.60;58.50;;;;;;5027977;28;20548;-87
2021/07/02 11:02:08;;;;;;;;;;;;;;;;;;;;;
2021/07/02 11:05:22;;;;;;;1999.90;999.90;;;31.40;58.80;;;;;;4992045;28;20516;-87
2021/07/02 11:08:04;;;;;;;1999.90;999.90;;;31.40;59.10;;;;;;4974668;28;20044;-88
2021/07/02 11:11:01;;;;;;;1999.90;999.90;;;31.40;59.60;;;;;;5034731;28;20033;-86
2021/07/02 11:13:29;;;;;;;1999.90;999.90;;;31.50;59.50;;;;;;5033114;28;20901;-84
2021/07/02 11:16:07;;;;;;;1999.90;999.90;;;31.70;59.50;;;;;;5035400;28;20025;-83
2021/07/02 11:18:42;;;;;;;1999.90;999.90;;;32.00;59.00;;;;;;5035465;28;20033;-84
2021/07/02 11:21:16;;;;;;;1999.90;999.90;;;32.00;58.30;;;;;;5034148;28;20193;-80
2021/07/02 11:23:42;;;;;;;1999.90;999.90;;;32.00;57.80;;;;;;5054409;28;20033;-83
2021/07/02 11:26:12;;;;;;;1999.90;999.90;;;32.00;57.80;;;;;;5034789;28;20020;-83
2021/07/02 11:28:52;;;;;;;1999.90;999.90;;;32.00;58.00;;;;;;5050162;28;20037;-84
2021/07/02 11:31:18;;;;;;;1999.90;999.90;;;32.00;57.80;;;;;;5034706;28;20128;-83
2021/07/02 11:33:45;;;;;;;1999.90;999.90;;;31.90;58.00;;;;;;5036614;28;20029;-83
2021/07/02 11:36:15;;;;;;;1999.90;999.90;;;31.90;58.30;;;;;;5039902;28;20033;-81
2021/07/02 11:38:52;;;;;;;1999.90;999.90;;;31.80;58.10;;;;;;5032832;28;20033;-84
2021/07/02 11:41:21;;;;;;;1999.90;999.90;;;31.70;57.70;;;;;;5030870;28;20120;-83
2021/07/02 11:43:48;;;;;;;1999.90;999.90;;;31.70;58.20;;;;;;5027920;28;20032;-82
2021/07/02 11:46:16;;;;;;;1999.90;999.90;;;31.70;58.30;;;;;;5021098;28;20115;-83
2021/07/02 11:48:47;;;;;;;1999.90;999.90;;;31.70;58.40;;;;;;5030594;28;20029;-85
2021/07/02 11:51:19;;;;;;;1999.90;999.90;;;31.80;58.00;;;;;;5028693;28;20021;-81
2021/07/02 11:53:46;;;;;;;;;;;31.90;57.90;;;;;;5045036;28;20067;-82
2021/07/02 11:56:17;;;;;;;1999.90;999.90;;;32.00;57.60;;;;;;5027297;28;20011;-83
2021/07/02 11:58:48;;;;;;;1999.90;999.90;;;32.10;57.00;;;;;;5017995;28;20060;-84
2021/07/02 12:01:15;;;;;;;1999.90;999.90;;;32.10;57.00;;;;;;5020261;28;20029;-84
2021/07/02 12:03:50;;;;;;;1999.90;999.90;;;32.00;57.30;;;;;;5029439;28;22415;-87
2021/07/02 12:06:24;;;;;;;1999.90;999.90;;;31.90;57.50;;;;;;5022520;28;20045;-85
2021/07/02 12:09:06;;;;;;;1999.90;999.90;;;31.90;58.20;;;;;;5033563;28;20565;-85
2021/07/02 12:11:37;;;;;;;1999.90;999.90;;;31.70;58.30;;;;;;5025998;28;20021;-84
2021/07/02 12:14:05;;;;;;;1999.90;999.90;;;31.60;58.50;;;;;;5022107;28;20402;-84
2021/07/02 12:16:34;;;;;;;1999.90;999.90;;;31.60;58.80;;;;;;5032333;28;20494;-83
2021/07/02 12:19:06;;;;;;;1999.90;999.90;;;31.60;58.60;;;;;;5038626;28;20047;-82
2021/07/02 12:21:33;;;;;;;1999.90;999.90;;;31.50;58.90;;;;;;5036524;28;20036;-83
2021/07/02 12:24:04;;;;;;;1999.90;999.90;;;31.40;59.00;;;;;;5048712;28;20063;-84